Time;durP1;ratioP1;P1;durP2;ratioP2;P2;SDS_P1;SDS_P2;PMS_P1;PMS_P2;Temp;Humidity;BMP_temperature;BMP_pressure;BME280_temperature;BME280_humidity;BME280_pressure;Samples;Min_cycle;Max_cycle;Signal;HPM_P1;HPM_P2
2022/03/10 00:00:03;;;;;;;2.27;1.30;;;1.00;92.40;;;;;;5069320;28;20207;-58
2022/03/10 00:02:47;;;;;;;1.60;1.50;;;1.00;92.60;;;;;;5071235;28;20200;-59
2022/03/10 00:05:31;;;;;;;3.23;1.70;;;1.00;92.60;;;;;;5068256;28;20237;-56
2022/03/10 00:08:16;;;;;;;2.37;1.97;;;1.00;92.60;;;;;;5070848;28;20255;-58
2022/03/10 00:11:00;;;;;;;3.50;2.23;;;1.00;92.80;;;;;;5070746;28;20240;-56
2022/03/10 00:13:45;;;;;;;1.20;1.10;;;1.00;93.10;;;;;;5067553;28;20199;-59
2022/03/10 00:16:30;;;;;;;3.17;1.70;;;0.90;93.20;;;;;;5071472;28;20207;-58
2022/03/10 00:19:16;;;;;;;2.30;2.20;;;1.00;93.20;;;;;;5070219;28;20197;-58
2022/03/10 00:22:00;;;;;;;6.40;1.30;;;1.00;93.10;;;;;;5068897;28;20220;-59
2022/03/10 00:24:44;;;;;;;3.23;2.23;;;1.00;93.20;;;;;;5071245;28;20196;-57
2022/03/10 00:27:28;;;;;;;2.10;1.97;;;0.90;93.30;;;;;;5068711;28;20204;-58
2022/03/10 00:30:13;;;;;;;2.53;1.90;;;0.80;93.40;;;;;;5063783;28;20224;-59
2022/03/10 00:32:58;;;;;;;1.53;1.43;;;0.80;93.70;;;;;;5056192;28;20188;-56
2022/03/10 00:35:42;;;;;;;2.73;2.10;;;0.80;93.90;;;;;;5052337;28;20319;-57
2022/03/10 00:38:27;;;;;;;3.63;1.47;;;0.60;94.20;;;;;;5055462;28;20205;-55
2022/03/10 00:41:12;;;;;;;2.13;1.47;;;0.60;94.40;;;;;;5055378;28;20277;-58
2022/03/10 00:43:56;;;;;;;3.27;1.90;;;0.60;94.40;;;;;;5052164;28;20188;-57
2022/03/10 00:46:40;;;;;;;2.47;1.43;;;0.70;94.50;;;;;;5055805;28;20206;-56
2022/03/10 00:49:25;;;;;;;2.60;1.77;;;0.60;94.70;;;;;;5053982;28;20302;-57
2022/03/10 00:52:09;;;;;;;3.07;1.80;;;0.50;95.00;;;;;;5053831;28;20261;-55
2022/03/10 00:54:53;;;;;;;4.93;2.03;;;0.50;95.10;;;;;;5055293;28;20265;-56
2022/03/10 00:57:39;;;;;;;1.23;1.23;;;0.40;95.30;;;;;;5052589;28;20201;-58
2022/03/10 01:00:25;;;;;;;4.87;1.77;;;0.30;95.80;;;;;;5054052;28;20275;-56
2022/03/10 01:03:09;;;;;;;2.00;1.43;;;0.30;96.00;;;;;;5055090;28;20205;-57
2022/03/10 01:05:53;;;;;;;2.43;1.97;;;0.40;95.90;;;;;;5051641;28;20281;-57
2022/03/10 01:08:37;;;;;;;3.13;2.30;;;0.40;96.10;;;;;;5060905;28;20225;-58
2022/03/10 01:11:22;;;;;;;2.57;2.00;;;0.40;95.90;;;;;;5063147;28;20251;-56
2022/03/10 01:14:06;;;;;;;4.70;2.17;;;0.30;95.80;;;;;;5060325;28;20281;-56
2022/03/10 01:16:50;;;;;;;2.57;1.30;;;0.20;95.70;;;;;;5066368;28;20251;-57
2022/03/10 01:19:34;;;;;;;1.53;1.37;;;0.10;95.60;;;;;;5065879;28;20197;-53
2022/03/10 01:22:19;;;;;;;6.37;1.67;;;0.10;95.70;;;;;;5060031;28;20198;-50
2022/03/10 01:25:04;;;;;;;1.03;1.03;;;0.00;95.80;;;;;;5068568;28;20228;-55
2022/03/10 01:27:49;;;;;;;1.23;1.13;;;0.00;96.10;;;;;;5071416;28;20197;-56
2022/03/10 01:30:33;;;;;;;2.57;2.07;;;-0.10;96.20;;;;;;5071640;28;20182;-55
2022/03/10 01:33:18;;;;;;;6.07;2.07;;;-0.20;96.30;;;;;;5074136;28;20246;-56
2022/03/10 01:36:02;;;;;;;1.17;1.10;;;-0.10;96.60;;;;;;5069871;28;20197;-56
2022/03/10 01:38:47;;;;;;;1.43;1.13;;;-0.20;96.50;;;;;;5073405;28;20270;-56
2022/03/10 01:41:32;;;;;;;1.60;1.50;;;-0.10;96.80;;;;;;5072740;28;20205;-56
2022/03/10 01:44:20;;;;;;;3.40;1.67;;;0.00;97.00;;;;;;5066797;28;20630;-58
2022/03/10 01:47:10;;;;;;;3.90;2.73;;;-0.10;97.40;;;;;;5052932;28;20300;-57
2022/03/10 01:49:54;;;;;;;2.97;1.80;;;-0.10;97.80;;;;;;5052659;28;20229;-58
2022/03/10 01:52:39;;;;;;;1.50;1.43;;;0.00;97.90;;;;;;5050776;28;20248;-59
2022/03/10 01:55:23;;;;;;;1.77;1.50;;;0.00;97.90;;;;;;5053460;28;20204;-57
2022/03/10 01:58:08;;;;;;;2.13;1.93;;;0.00;98.10;;;;;;5050414;28;20216;-59
2022/03/10 02:00:53;;;;;;;4.53;1.53;;;-0.10;98.20;;;;;;5051642;28;20193;-54
2022/03/10 02:03:38;;;;;;;1.73;1.53;;;-0.10;98.50;;;;;;5053891;28;20202;-56
2022/03/10 02:06:22;;;;;;;1.37;1.27;;;-0.30;98.90;;;;;;5050126;28;20290;-57
2022/03/10 02:12:10;;;;;;;2.03;1.93;;;-0.30;99.10;;;;;;5068514;28;20208;-58
2022/03/10 02:18:23;;;;;;;5.17;2.47;;;-0.30;99.20;;;;;;5065802;28;20253;-57
2022/03/10 02:21:07;;;;;;;2.20;1.73;;;-0.30;99.10;;;;;;5053416;28;20197;-57
2022/03/10 02:23:53;;;;;;;1.27;1.23;;;-0.30;99.10;;;;;;5050086;28;20193;-57
2022/03/10 02:26:38;;;;;;;3.07;1.70;;;-0.20;99.10;;;;;;5051513;28;20201;-58
2022/03/10 02:29:22;;;;;;;9.93;1.50;;;-0.30;99.10;;;;;;5060026;28;20236;-53
2022/03/10 02:32:06;;;;;;;5.93;1.63;;;-0.30;99.10;;;;;;5067009;28;20266;-55
2022/03/10 02:34:51;;;;;;;0.97;0.97;;;-0.30;99.20;;;;;;5071008;28;20196;-54
2022/03/10 02:37:35;;;;;;;1.67;1.57;;;-0.20;99.30;;;;;;5069350;28;20241;-56
2022/03/10 02:40:20;;;;;;;1.23;1.17;;;-0.30;99.20;;;;;;5068043;28;20222;-57
2022/03/10 02:43:04;;;;;;;1.30;1.20;;;-0.40;99.30;;;;;;5068905;28;20189;-57
2022/03/10 02:45:50;;;;;;;3.07;1.67;;;-0.40;99.30;;;;;;5066893;28;20185;-59
2022/03/10 02:48:34;;;;;;;1.60;1.30;;;-0.50;99.20;;;;;;5068194;28;20277;-56
2022/03/10 02:51:18;;;;;;;1.67;1.57;;;-0.60;99.30;;;;;;5070365;28;20248;-57
2022/03/10 02:54:02;;;;;;;3.13;1.70;;;-0.50;99.40;;;;;;5066457;28;20220;-58
2022/03/10 02:56:46;;;;;;;3.80;2.13;;;-0.60;99.50;;;;;;5067363;28;20193;-59
2022/03/10 02:59:31;;;;;;;1.80;1.03;;;-0.60;99.90;;;;;;5070276;28;20189;-57
2022/03/10 03:02:15;;;;;;;2.67;1.00;;;-0.60;99.70;;;;;;5067446;28;20208;-57
2022/03/10 03:04:59;;;;;;;3.33;1.90;;;-0.60;99.90;;;;;;5070553;28;20212;-57
2022/03/10 03:07:45;;;;;;;2.93;1.50;;;-0.50;99.90;;;;;;5068058;28;20220;-55
2022/03/10 03:10:29;;;;;;;0.90;0.90;;;-0.60;99.90;;;;;;5067895;28;20204;-56
2022/03/10 03:13:13;;;;;;;5.20;1.73;;;-0.50;99.90;;;;;;5070725;28;20334;-57
2022/03/10 03:15:58;;;;;;;2.27;1.37;;;-0.60;99.90;;;;;;5069927;28;20204;-57
2022/03/10 03:18:42;;;;;;;1.47;1.37;;;-0.60;99.90;;;;;;5069542;28;20325;-56
2022/03/10 03:21:26;;;;;;;1.77;0.87;;;-0.60;99.90;;;;;;5072415;28;20306;-56
2022/03/10 03:24:11;;;;;;;2.07;1.60;;;-0.60;99.90;;;;;;5069372;28;20213;-58
2022/03/10 03:26:55;;;;;;;1.53;1.27;;;-0.60;99.90;;;;;;5071715;28;20282;-56
2022/03/10 03:29:40;;;;;;;1.93;1.53;;;-0.80;99.90;;;;;;5072403;28;20232;-57
2022/03/10 03:32:24;;;;;;;7.67;1.23;;;-0.80;99.90;;;;;;5068376;28;20221;-56
2022/03/10 03:35:10;;;;;;;1.93;1.73;;;-0.80;99.90;;;;;;5077480;28;20208;-57
2022/03/10 03:37:54;;;;;;;1.23;1.20;;;-0.80;99.90;;;;;;5066947;28;20236;-57
2022/03/10 03:40:38;;;;;;;0.97;0.83;;;-0.90;99.90;;;;;;5066775;28;20185;-56
2022/03/10 03:43:22;;;;;;;0.80;0.73;;;-1.00;99.90;;;;;;5079230;28;20287;-54
2022/03/10 03:46:07;;;;;;;0.77;0.77;;;-0.90;99.90;;;;;;5094733;28;20188;-55
2022/03/10 03:48:52;;;;;;;1.37;1.33;;;-0.90;99.90;;;;;;5070584;28;20213;-57
2022/03/10 03:51:37;;;;;;;1.37;0.83;;;-0.90;99.90;;;;;;5074594;28;20197;-57
2022/03/10 03:54:21;;;;;;;3.50;1.63;;;-1.00;99.90;;;;;;5075169;28;20323;-57
2022/03/10 03:57:05;;;;;;;1.30;1.20;;;-0.90;99.90;;;;;;5076147;28;20224;-58
2022/03/10 03:59:50;;;;;;;1.43;1.43;;;-1.00;99.90;;;;;;5063666;28;20205;-55
2022/03/10 04:02:35;;;;;;;2.13;1.57;;;-1.00;99.90;;;;;;5061691;28;20212;-56
2022/03/10 04:05:19;;;;;;;1.70;1.60;;;-0.90;99.90;;;;;;5065688;28;20193;-55
2022/03/10 04:08:04;;;;;;;2.73;1.13;;;-1.00;99.90;;;;;;5063704;28;20286;-57
2022/03/10 04:10:49;;;;;;;3.87;2.57;;;-1.00;99.90;;;;;;5065399;28;20267;-57
2022/03/10 04:13:33;;;;;;;2.40;1.13;;;-0.90;99.90;;;;;;5070205;28;20194;-56
2022/03/10 04:16:18;;;;;;;2.20;1.40;;;-0.90;99.90;;;;;;5064103;28;20197;-56
2022/03/10 04:19:03;;;;;;;8.83;2.37;;;-0.90;99.90;;;;;;5065568;28;20256;-56
2022/03/10 04:21:47;;;;;;;4.60;2.87;;;-0.90;99.90;;;;;;5068458;28;20216;-56
2022/03/10 04:24:31;;;;;;;1.13;1.13;;;-1.00;99.90;;;;;;5066062;28;20278;-54
2022/03/10 04:27:16;;;;;;;3.20;2.33;;;-1.00;99.90;;;;;;5073278;28;20196;-54
2022/03/10 04:30:00;;;;;;;2.07;1.87;;;-1.00;99.90;;;;;;5076935;28;20252;-56
2022/03/10 04:32:46;;;;;;;1.13;1.10;;;-1.00;99.90;;;;;;5067930;28;20209;-55
2022/03/10 04:35:31;;;;;;;1.03;1.00;;;-1.00;99.90;;;;;;5084434;28;20274;-54
2022/03/10 04:38:15;;;;;;;2.20;2.00;;;-1.00;99.90;;;;;;5080337;28;20255;-56
2022/03/10 04:41:00;;;;;;;19.07;10.43;;;-1.10;99.90;;;;;;5069525;28;20278;-58
2022/03/10 04:43:44;;;;;;;7.90;5.00;;;-1.00;99.90;;;;;;5070012;28;20214;-56
2022/03/10 04:46:29;;;;;;;2.83;2.33;;;-0.80;99.90;;;;;;5066798;28;20197;-56
2022/03/10 04:49:13;;;;;;;1.60;1.50;;;-0.60;99.90;;;;;;5067913;28;20237;-52
2022/03/10 04:51:57;;;;;;;5.73;2.00;;;-0.50;99.90;;;;;;5070167;28;20193;-56
2022/03/10 04:54:42;;;;;;;3.40;1.93;;;-0.50;99.90;;;;;;5065584;28;20274;-57
2022/03/10 04:57:26;;;;;;;2.13;1.67;;;-0.50;99.90;;;;;;5068947;28;20279;-57
2022/03/10 05:00:11;;;;;;;4.73;3.50;;;-0.40;99.90;;;;;;5068384;28;20248;-57
2022/03/10 05:02:56;;;;;;;16.43;8.23;;;-0.30;99.90;;;;;;5065559;28;20198;-56
2022/03/10 05:05:40;;;;;;;1.50;1.40;;;-0.50;99.90;;;;;;5069282;28;20189;-55
2022/03/10 05:08:24;;;;;;;1.03;1.03;;;-0.40;99.90;;;;;;5067160;28;20260;-55
2022/03/10 05:11:09;;;;;;;4.70;1.63;;;-0.30;99.90;;;;;;5066100;28;20291;-55
2022/03/10 05:13:53;;;;;;;2.13;1.67;;;-0.40;99.90;;;;;;5069459;28;20189;-52
2022/03/10 05:16:38;;;;;;;4.40;1.83;;;-0.40;99.90;;;;;;5066585;28;20277;-54
2022/03/10 05:19:21;;;;;;;1.27;1.27;;;-0.30;99.90;;;;;;5066604;28;20210;-52
2022/03/10 05:22:06;;;;;;;7.33;1.33;;;-0.30;99.90;;;;;;5069325;28;20197;-56
2022/03/10 05:24:50;;;;;;;4.47;1.00;;;-0.30;99.90;;;;;;5065572;28;20208;-51
2022/03/10 05:27:35;;;;;;;7.67;1.87;;;-0.30;99.90;;;;;;5068682;28;20287;-51
2022/03/10 05:30:20;;;;;;;4.10;2.00;;;-0.30;99.90;;;;;;5067767;28;20288;-54
2022/03/10 05:33:04;;;;;;;2.63;1.97;;;-0.40;99.90;;;;;;5054195;28;20229;-56
2022/03/10 05:35:49;;;;;;;3.13;1.60;;;-0.30;99.90;;;;;;5065699;28;20197;-56
2022/03/10 05:38:34;;;;;;;1.63;1.50;;;-0.20;99.90;;;;;;5064473;28;20255;-57
2022/03/10 05:41:18;;;;;;;0.80;0.80;;;-0.50;99.90;;;;;;5064801;28;20243;-51
2022/03/10 05:44:03;;;;;;;2.70;1.10;;;-0.60;99.90;;;;;;5067567;28;20196;-54
2022/03/10 05:46:47;;;;;;;6.57;1.73;;;-0.70;99.90;;;;;;5063613;28;20233;-54
2022/03/10 05:49:31;;;;;;;2.63;1.90;;;-0.80;99.90;;;;;;5066726;28;20274;-52
2022/03/10 05:52:16;;;;;;;3.83;1.23;;;-0.90;99.90;;;;;;5067493;28;20228;-54
2022/03/10 05:55:00;;;;;;;2.10;1.20;;;-0.90;99.90;;;;;;5064345;28;20198;-54
2022/03/10 05:57:44;;;;;;;2.77;1.20;;;-1.00;99.90;;;;;;5067380;28;20201;-55
2022/03/10 06:00:29;;;;;;;1.07;1.00;;;-1.00;99.90;;;;;;5066591;28;20213;-57
2022/03/10 06:03:14;;;;;;;4.07;1.97;;;-1.00;99.90;;;;;;5063642;28;20209;-54
2022/03/10 06:05:58;;;;;;;1.47;1.37;;;-1.00;99.90;;;;;;5065288;28;20258;-53
2022/03/10 06:08:43;;;;;;;3.23;2.23;;;-0.90;99.90;;;;;;5063904;28;20233;-56
2022/03/10 06:11:27;;;;;;;1.53;1.43;;;-1.00;99.90;;;;;;5063944;28;20193;-56
2022/03/10 06:14:11;;;;;;;3.33;2.23;;;-0.90;99.90;;;;;;5064629;28;20194;-54
2022/03/10 06:16:55;;;;;;;1.30;1.10;;;-0.90;99.90;;;;;;5063740;28;20592;-57
2022/03/10 06:19:40;;;;;;;7.70;1.57;;;-1.00;99.90;;;;;;5061573;28;20189;-56
2022/03/10 06:22:29;;;;;;;1.20;1.17;;;-1.00;99.90;;;;;;5062149;28;20193;-53
2022/03/10 06:25:13;;;;;;;1.33;1.23;;;-1.10;99.90;;;;;;5067281;28;20182;-54
2022/03/10 06:27:58;;;;;;;1.93;1.67;;;-1.10;99.90;;;;;;5072970;28;20262;-54
2022/03/10 06:30:43;;;;;;;2.93;1.47;;;-1.00;99.90;;;;;;5078099;28;20252;-56
2022/03/10 06:33:27;;;;;;;1.80;1.67;;;-0.90;99.90;;;;;;5070993;28;20296;-56
2022/03/10 06:36:12;;;;;;;3.37;2.40;;;-0.90;99.90;;;;;;5069011;28;20235;-58
2022/03/10 06:38:57;;;;;;;1.03;0.80;;;-0.90;99.90;;;;;;5070115;28;20236;-56
2022/03/10 06:41:41;;;;;;;1.73;1.63;;;-0.80;99.90;;;;;;5069734;28;20269;-59
2022/03/10 06:44:26;;;;;;;3.43;1.67;;;-0.70;99.90;;;;;;5072590;28;20238;-59
2022/03/10 06:47:12;;;;;;;1.07;1.07;;;-0.60;99.90;;;;;;5069509;28;20201;-60
2022/03/10 06:49:56;;;;;;;1.50;1.50;;;-0.50;99.90;;;;;;5071073;28;20228;-58
2022/03/10 06:52:41;;;;;;;2.43;1.23;;;-0.40;99.90;;;;;;5072678;28;20193;-55
2022/03/10 06:55:26;;;;;;;2.07;1.87;;;-0.40;99.90;;;;;;5075575;28;20191;-57
2022/03/10 06:58:10;;;;;;;1.97;1.47;;;-0.50;99.90;;;;;;5078440;28;20219;-54
2022/03/10 07:00:55;;;;;;;2.20;2.10;;;-0.50;99.90;;;;;;5075246;28;20192;-57
2022/03/10 07:03:39;;;;;;;3.33;1.93;;;-0.40;99.90;;;;;;5078153;28;20185;-57
2022/03/10 07:06:24;;;;;;;1.57;1.43;;;-0.20;99.90;;;;;;5079302;28;20196;-58
2022/03/10 07:09:08;;;;;;;2.83;2.20;;;-0.10;99.90;;;;;;5070192;28;20227;-58
2022/03/10 07:11:54;;;;;;;1.63;1.47;;;-0.20;99.90;;;;;;5068972;28;20197;-58
2022/03/10 07:14:38;;;;;;;8.70;2.67;;;-0.20;99.90;;;;;;5071595;28;20251;-59
2022/03/10 07:17:22;;;;;;;2.07;1.70;;;0.00;99.90;;;;;;5068206;28;20258;-57
2022/03/10 07:20:08;;;;;;;2.83;1.97;;;0.10;99.90;;;;;;5079231;28;20282;-60
2022/03/10 07:22:53;;;;;;;2.07;1.47;;;0.10;99.90;;;;;;5051714;28;20194;-57
2022/03/10 07:25:37;;;;;;;4.57;1.47;;;0.10;99.90;;;;;;5047680;28;20194;-59
2022/03/10 07:28:22;;;;;;;0.80;0.80;;;0.10;99.90;;;;;;5050966;28;20313;-58
2022/03/10 07:31:06;;;;;;;1.37;1.27;;;0.20;99.90;;;;;;5050524;28;20193;-60
2022/03/10 07:33:50;;;;;;;4.97;2.77;;;0.30;99.90;;;;;;5055983;28;20245;-58
2022/03/10 07:36:35;;;;;;;2.50;1.77;;;0.40;99.90;;;;;;5050729;28;20229;-59
2022/03/10 07:39:19;;;;;;;1.23;1.17;;;0.50;99.90;;;;;;5073098;28;20196;-58
2022/03/10 07:42:04;;;;;;;6.90;2.33;;;0.50;99.90;;;;;;5070124;28;20196;-59
2022/03/10 07:44:49;;;;;;;1.17;1.17;;;0.60;99.90;;;;;;5071146;28;20229;-53
2022/03/10 07:47:33;;;;;;;1.97;1.87;;;0.50;99.90;;;;;;5067620;28;20188;-59
2022/03/10 07:50:17;;;;;;;0.97;0.97;;;0.60;99.90;;;;;;5070466;28;20197;-59
2022/03/10 07:53:02;;;;;;;3.50;1.50;;;0.80;99.90;;;;;;5071632;28;20254;-60
2022/03/10 07:55:48;;;;;;;5.37;2.40;;;0.90;99.90;;;;;;5067896;28;20323;-59
2022/03/10 07:58:32;;;;;;;2.23;1.53;;;0.90;99.90;;;;;;5070642;28;20204;-60
2022/03/10 08:01:17;;;;;;;2.90;2.00;;;1.00;99.90;;;;;;5069935;28;20251;-58
2022/03/10 08:04:01;;;;;;;1.83;1.47;;;1.10;99.90;;;;;;5068289;28;20274;-57
2022/03/10 08:06:45;;;;;;;7.00;2.67;;;1.10;99.90;;;;;;5070850;28;20189;-59
2022/03/10 08:09:30;;;;;;;2.70;2.40;;;1.20;99.90;;;;;;5067746;28;20255;-60
2022/03/10 08:12:14;;;;;;;4.40;2.10;;;1.30;99.90;;;;;;5068663;28;20208;-59
2022/03/10 08:15:00;;;;;;;2.97;1.80;;;1.40;99.90;;;;;;5070835;28;20192;-60
2022/03/10 08:17:44;;;;;;;2.67;1.57;;;1.60;99.90;;;;;;5067236;28;20268;-59
2022/03/10 08:20:29;;;;;;;5.80;2.43;;;1.70;99.90;;;;;;5073038;28;20208;-56
2022/03/10 08:23:15;;;;;;;1.73;1.63;;;1.90;99.90;;;;;;5081826;28;20280;-61
2022/03/10 08:25:59;;;;;;;1.43;1.33;;;2.00;99.90;;;;;;5077032;28;20192;-59
2022/03/10 08:28:45;;;;;;;2.80;1.97;;;2.10;99.90;;;;;;5080531;28;20281;-59
2022/03/10 08:31:30;;;;;;;4.00;2.17;;;2.30;99.90;;;;;;5075393;28;20205;-60
2022/03/10 08:34:16;;;;;;;2.83;1.93;;;2.40;99.90;;;;;;5075624;28;20323;-59
2022/03/10 08:37:00;;;;;;;5.00;2.07;;;2.50;99.90;;;;;;5080124;28;20228;-58
2022/03/10 08:39:45;;;;;;;1.93;1.83;;;2.70;99.90;;;;;;5078531;28;20250;-60
2022/03/10 08:42:29;;;;;;;1.90;1.57;;;2.80;99.70;;;;;;5068219;28;20242;-58
2022/03/10 08:45:13;;;;;;;1.60;1.30;;;3.00;99.90;;;;;;5081584;28;20201;-60
2022/03/10 08:47:58;;;;;;;1.77;1.43;;;3.30;99.40;;;;;;5075908;28;20197;-57
2022/03/10 08:50:42;;;;;;;1.97;1.50;;;3.60;98.80;;;;;;5080065;28;20216;-58
2022/03/10 08:53:27;;;;;;;3.13;1.50;;;4.20;97.70;;;;;;5084980;28;20250;-60
2022/03/10 08:56:11;;;;;;;2.40;1.70;;;4.50;96.80;;;;;;5079358;28;20185;-60
2022/03/10 08:58:56;;;;;;;4.80;1.93;;;5.00;96.30;;;;;;5082601;28;20201;-59
2022/03/10 09:01:41;;;;;;;3.97;1.83;;;5.40;95.00;;;;;;5082971;28;20205;-60
2022/03/10 09:04:26;;;;;;;3.87;2.17;;;5.70;94.50;;;;;;5082077;28;20197;-57
2022/03/10 09:07:11;;;;;;;3.60;1.93;;;5.80;93.70;;;;;;5080702;28;20192;-60
2022/03/10 09:09:55;;;;;;;2.67;1.73;;;6.10;93.90;;;;;;5075438;28;20240;-62
2022/03/10 09:12:40;;;;;;;3.53;2.10;;;6.50;92.70;;;;;;5081914;28;20247;-60
2022/03/10 09:15:27;;;;;;;4.63;2.40;;;6.70;92.70;;;;;;5073120;28;20234;-60
2022/03/10 09:18:13;;;;;;;3.10;2.37;;;7.20;91.90;;;;;;5067609;28;20192;-61
2022/03/10 09:20:57;;;;;;;3.77;2.23;;;7.20;91.20;;;;;;5071825;28;20197;-56
2022/03/10 09:23:42;;;;;;;1.90;1.80;;;7.10;91.50;;;;;;5072487;28;20207;-61
2022/03/10 09:26:26;;;;;;;4.30;2.30;;;7.80;91.10;;;;;;5069158;28;20189;-59
2022/03/10 09:29:11;;;;;;;2.73;2.10;;;8.30;90.20;;;;;;5070161;28;20396;-60
2022/03/10 09:31:55;;;;;;;3.30;2.43;;;9.00;89.00;;;;;;5070733;28;20254;-57
2022/03/10 09:34:40;;;;;;;4.07;2.40;;;9.10;87.10;;;;;;5069283;28;20201;-60
2022/03/10 09:37:24;;;;;;;3.23;2.90;;;9.80;85.20;;;;;;5072887;28;20224;-61
2022/03/10 09:40:10;;;;;;;5.00;2.70;;;9.80;84.10;;;;;;5069933;28;20197;-56
2022/03/10 09:42:55;;;;;;;4.53;2.87;;;9.70;83.70;;;;;;5073489;28;20185;-59
2022/03/10 09:45:40;;;;;;;4.43;2.40;;;9.50;84.00;;;;;;5069643;28;20274;-59
2022/03/10 09:48:25;;;;;;;3.07;2.60;;;10.00;83.10;;;;;;5071108;28;20217;-58
2022/03/10 09:51:10;;;;;;;3.20;2.63;;;10.20;80.90;;;;;;5070936;28;20246;-59
2022/03/10 09:53:55;;;;;;;10.53;2.90;;;9.90;81.70;;;;;;5070604;28;20201;-58
2022/03/10 09:56:42;;;;;;;6.20;3.30;;;9.90;81.80;;;;;;5064467;28;20207;-59
2022/03/10 09:59:27;;;;;;;12.73;5.50;;;9.80;81.80;;;;;;5070761;28;20315;-59
2022/03/10 10:02:11;;;;;;;5.17;2.87;;;11.20;81.20;;;;;;5071473;28;20217;-60
2022/03/10 10:04:56;;;;;;;5.40;2.50;;;11.60;78.40;;;;;;5062087;28;20220;-56
2022/03/10 10:07:41;;;;;;;8.30;3.77;;;12.20;77.50;;;;;;5069569;28;20265;-56
2022/03/10 10:10:29;;;;;;;4.57;3.33;;;12.50;76.30;;;;;;5069370;28;20200;-60
2022/03/10 10:13:42;;;;;;;4.37;3.10;;;13.10;73.90;;;;;;5069599;28;20188;-58
2022/03/10 10:16:26;;;;;;;9.63;3.70;;;13.30;72.30;;;;;;5067563;28;20215;-59
2022/03/10 10:19:17;;;;;;;7.77;3.87;;;13.40;70.90;;;;;;5069860;28;20200;-61
2022/03/10 10:22:21;;;;;;;8.07;4.30;;;12.80;71.40;;;;;;5066729;28;20251;-58
2022/03/10 10:25:06;;;;;;;5.57;4.13;;;13.20;71.80;;;;;;5067745;28;20212;-59
2022/03/10 10:27:50;;;;;;;4.77;3.47;;;13.60;70.80;;;;;;5070083;28;20257;-61
2022/03/10 10:30:34;;;;;;;6.60;3.63;;;13.30;71.80;;;;;;5066097;28;20228;-58
2022/03/10 10:33:19;;;;;;;4.37;3.97;;;13.70;70.90;;;;;;5068988;28;20307;-52
2022/03/10 10:36:24;;;;;;;5.77;3.80;;;13.40;71.10;;;;;;5063833;28;20268;-60
2022/03/10 10:39:18;;;;;;;7.33;4.23;;;13.70;70.10;;;;;;5066452;28;20196;-56
2022/03/10 10:42:15;;;;;;;5.40;3.63;;;14.30;68.10;;;;;;5070042;28;20285;-59
2022/03/10 10:45:00;;;;;;;5.77;4.30;;;14.70;67.50;;;;;;5065729;28;20212;-60
2022/03/10 10:48:09;;;;;;;5.88;4.10;;;14.50;67.70;;;;;;5095135;28;20209;-57
2022/03/10 10:50:53;;;;;;;5.47;4.70;;;16.30;64.40;;;;;;5068372;28;20244;-59
2022/03/10 10:53:39;;;;;;;5.38;4.20;;;15.50;62.90;;;;;;5069621;28;20188;-55
2022/03/10 10:56:26;;;;;;;5.65;4.13;;;15.00;63.60;;;;;;5070244;28;20266;-56
2022/03/10 10:59:31;;;;;;;7.68;4.68;;;14.50;65.00;;;;;;5072691;28;20273;-60
2022/03/10 11:02:22;;;;;;;8.07;4.90;;;15.20;64.30;;;;;;5069959;28;20181;-59
2022/03/10 11:05:14;;;;;;;5.63;4.10;;;15.50;62.40;;;;;;5069554;28;20196;-53
2022/03/10 11:07:59;;;;;;;5.30;4.38;;;16.30;61.40;;;;;;5070439;28;20255;-58
2022/03/10 11:10:45;;;;;;;6.18;4.85;;;16.70;59.70;;;;;;5069117;28;20204;-61
2022/03/10 11:13:29;;;;;;;10.52;6.60;;;17.30;58.70;;;;;;5070642;28;20196;-58
2022/03/10 11:16:15;;;;;;;9.30;7.00;;;17.20;59.20;;;;;;5072299;28;20189;-57
2022/03/10 11:19:00;;;;;;;10.85;6.35;;;17.70;58.00;;;;;;5069384;28;20282;-60
2022/03/10 11:22:05;;;;;;;7.03;5.00;;;17.60;57.90;;;;;;5072063;28;20707;-60
2022/03/10 11:25:03;;;;;;;7.95;4.80;;;17.20;57.90;;;;;;5097002;28;20322;-60
2022/03/10 11:28:03;;;;;;;5.57;4.30;;;15.10;59.80;;;;;;5067489;28;20268;-61
2022/03/10 11:30:55;;;;;;;7.38;4.97;;;15.80;60.00;;;;;;5097406;28;20240;-54
2022/03/10 11:33:40;;;;;;;5.47;3.90;;;17.10;57.50;;;;;;5069652;28;20193;-57
2022/03/10 11:36:26;;;;;;;9.15;5.35;;;17.40;56.20;;;;;;5066989;28;20220;-60
2022/03/10 11:39:12;;;;;;;6.68;4.40;;;16.60;57.60;;;;;;5067754;28;20192;-58
2022/03/10 11:42:03;;;;;;;7.05;4.60;;;14.40;59.90;;;;;;5071440;28;20240;-60
2022/03/10 11:45:11;;;;;;;6.10;4.15;;;13.40;61.80;;;;;;5068497;28;20220;-60
2022/03/10 11:48:30;;;;;;;7.03;4.00;;;13.00;63.30;;;;;;5098118;28;20196;-60
2022/03/10 11:51:18;;;;;;;7.73;4.23;;;12.20;65.30;;;;;;5067804;28;20664;-60
2022/03/10 11:54:06;;;;;;;6.23;3.63;;;11.90;66.40;;;;;;5066510;28;20199;-56
2022/03/10 11:56:50;;;;;;;6.97;4.17;;;11.70;66.80;;;;;;5068308;28;20201;-55
2022/03/10 11:59:37;;;;;;;4.73;3.50;;;11.50;67.00;;;;;;5070374;28;20211;-54
2022/03/10 12:02:30;;;;;;;6.70;3.73;;;11.60;67.40;;;;;;5065784;28;20201;-59
2022/03/10 12:05:15;;;;;;;5.70;3.27;;;11.60;67.30;;;;;;5068840;28;20277;-59
2022/03/10 12:08:01;;;;;;;3.50;2.97;;;11.20;68.20;;;;;;5070929;28;20282;-57
2022/03/10 12:10:47;;;;;;;3.70;2.07;;;11.20;67.70;;;;;;5065219;28;20239;-57
2022/03/10 12:13:32;;;;;;;7.60;3.23;;;11.50;66.30;;;;;;5057062;28;20194;-58
2022/03/10 12:16:27;;;;;;;3.90;1.87;;;11.40;66.30;;;;;;5078815;28;20196;-61
2022/03/10 12:19:12;;;;;;;4.07;2.77;;;11.30;64.40;;;;;;5076045;28;20193;-61
2022/03/10 12:21:56;;;;;;;2.07;1.87;;;11.40;64.50;;;;;;5051644;28;20233;-57
2022/03/10 12:24:41;;;;;;;2.47;2.00;;;11.40;63.10;;;;;;5068639;28;20189;-61
2022/03/10 12:27:26;;;;;;;3.17;2.47;;;11.40;63.20;;;;;;5070496;28;20243;-52
2022/03/10 12:30:12;;;;;;;3.43;2.27;;;11.30;63.50;;;;;;5075874;28;20227;-59
2022/03/10 12:32:58;;;;;;;2.50;2.20;;;11.20;63.90;;;;;;5073469;28;20208;-58
2022/03/10 12:35:43;;;;;;;4.00;2.07;;;11.30;62.00;;;;;;5074281;28;20274;-56
2022/03/10 12:38:54;;;;;;;2.83;2.03;;;11.30;60.30;;;;;;5076194;28;20255;-55
2022/03/10 12:41:45;;;;;;;3.63;1.87;;;11.50;60.10;;;;;;5073633;28;20197;-54
2022/03/10 12:44:29;;;;;;;3.83;2.07;;;11.50;61.00;;;;;;5072390;28;20248;-55
2022/03/10 12:47:15;;;;;;;2.73;2.23;;;11.60;61.20;;;;;;5074685;28;20237;-55
2022/03/10 12:50:00;;;;;;;3.07;1.90;;;11.50;61.40;;;;;;5071932;28;20255;-55
2022/03/10 12:52:44;;;;;;;4.43;2.60;;;11.70;61.30;;;;;;5073786;28;20219;-51
2022/03/10 12:55:29;;;;;;;4.53;2.17;;;11.70;60.80;;;;;;5074314;28;20247;-52
2022/03/10 12:58:13;;;;;;;4.50;2.33;;;11.70;62.10;;;;;;5069645;28;20197;-56
2022/03/10 13:01:06;;;;;;;5.87;2.60;;;11.80;62.80;;;;;;5073001;28;20189;-58
2022/03/10 13:03:53;;;;;;;6.63;2.57;;;12.00;62.70;;;;;;5062718;28;20205;-55
2022/03/10 13:10:20;;;;;;;2.70;2.50;;;11.70;64.10;;;;;;5074057;28;20228;-55
2022/03/10 13:13:05;;;;;;;5.00;2.97;;;11.60;62.90;;;;;;5070118;28;20226;-52
2022/03/10 13:16:01;;;;;;;4.47;2.63;;;11.70;63.70;;;;;;5070543;28;20192;-51
2022/03/10 13:18:46;;;;;;;4.70;2.67;;;11.80;63.40;;;;;;5071840;28;20220;-54
2022/03/10 13:21:30;;;;;;;3.13;2.30;;;11.90;64.80;;;;;;5069992;28;20270;-46
2022/03/10 13:24:33;;;;;;;5.50;2.60;;;11.90;64.80;;;;;;5071617;28;20288;-52
2022/03/10 13:27:20;;;;;;;7.47;2.87;;;12.00;65.10;;;;;;5065932;28;20229;-61
2022/03/10 13:30:07;;;;;;;2.77;2.13;;;12.10;63.50;;;;;;5072732;28;20620;-57
2022/03/10 13:32:55;;;;;;;3.90;2.60;;;12.20;62.70;;;;;;5069545;28;20216;-55
2022/03/10 13:35:42;;;;;;;5.23;2.30;;;12.30;62.70;;;;;;5072977;28;20197;-57
2022/03/10 13:38:28;;;;;;;3.67;2.97;;;12.30;63.20;;;;;;5067748;28;20261;-59
2022/03/10 13:41:14;;;;;;;3.20;1.90;;;12.50;63.50;;;;;;5069597;28;20271;-52
2022/03/10 13:44:13;;;;;;;3.27;2.33;;;12.60;62.60;;;;;;5070356;28;20201;-54
2022/03/10 13:47:05;;;;;;;3.43;2.50;;;12.70;61.70;;;;;;5069119;28;20208;-57
2022/03/10 13:49:51;;;;;;;4.83;2.80;;;12.80;61.40;;;;;;5068945;28;20248;-54
2022/03/10 13:52:36;;;;;;;2.47;2.27;;;13.80;61.20;;;;;;5072536;28;20197;-54
2022/03/10 13:55:43;;;;;;;3.90;2.77;;;16.40;57.90;;;;;;5071660;28;20205;-51
2022/03/10 13:58:28;;;;;;;6.57;3.50;;;19.30;55.10;;;;;;5063893;28;20239;-56
2022/03/10 14:01:13;;;;;;;6.15;3.47;;;21.30;50.50;;;;;;5071201;28;20220;-49
2022/03/10 14:03:57;;;;;;;3.35;3.05;;;22.80;48.70;;;;;;5070257;28;20277;-58
2022/03/10 14:06:47;;;;;;;5.00;3.95;;;23.90;46.80;;;;;;5066321;28;20220;-53
2022/03/10 14:09:40;;;;;;;4.88;3.50;;;24.80;45.10;;;;;;5072084;28;20251;-58
2022/03/10 14:12:26;;;;;;;3.55;3.22;;;25.40;43.10;;;;;;5070064;28;20251;-52
2022/03/10 14:15:10;;;;;;;6.20;3.33;;;23.60;42.90;;;;;;5069901;28;20199;-58
2022/03/10 14:17:58;;;;;;;4.70;3.67;;;23.20;43.90;;;;;;5065034;28;20310;-57
2022/03/10 14:20:50;;;;;;;4.43;4.03;;;22.40;44.80;;;;;;5069166;28;20192;-55
2022/03/10 14:23:35;;;;;;;6.68;3.40;;;22.10;45.00;;;;;;5070205;28;20243;-59
2022/03/10 14:26:20;;;;;;;4.13;3.78;;;23.90;43.60;;;;;;5069015;28;20192;-49
2022/03/10 14:29:08;;;;;;;4.78;3.25;;;23.50;43.70;;;;;;5071695;28;20224;-58
2022/03/10 14:31:52;;;;;;;5.18;4.05;;;24.00;42.90;;;;;;5071430;28;20201;-53
2022/03/10 14:34:37;;;;;;;3.60;3.30;;;24.40;42.90;;;;;;5071773;28;20193;-59
2022/03/10 14:37:23;;;;;;;4.40;3.95;;;25.00;41.50;;;;;;5057420;28;20274;-49